Time;durP1;ratioP1;P1;durP2;ratioP2;P2;SDS_P1;SDS_P2;PMS_P1;PMS_P2;Temp;Humidity;BMP_temperature;BMP_pressure;BME280_temperature;BME280_humidity;BME280_pressure;Samples;Min_cycle;Max_cycle;Signal;HPM_P1;HPM_P2
2023/09/29 00:02:14;;;;;;;32.13;30.00;;;;;;;;;;5011308;28;20495;-83
2023/09/29 00:04:53;;;;;;;31.73;29.37;;;;;;;;;;5014319;28;20533;-84
2023/09/29 00:07:27;;;;;;;32.37;30.07;;;;;;;;;;5012948;28;20454;-84
2023/09/29 00:10:00;;;;;;;34.23;31.53;;;;;;;;;;5008826;28;20498;-84
2023/09/29 00:12:27;;;;;;;33.40;31.00;;;;;;;;;;4991965;28;20470;-83
2023/09/29 00:14:57;;;;;;;33.00;30.73;;;;;;;;;;4991951;28;20506;-84
2023/09/29 00:17:31;;;;;;;33.53;31.10;;;;;;;;;;4994023;28;20457;-84
2023/09/29 00:20:01;;;;;;;36.63;33.93;;;;;;;;;;4994441;28;20485;-84
2023/09/29 00:22:30;;;;;;;34.53;31.50;;;;;;;;;;4995297;28;20486;-84
2023/09/29 00:24:57;;;;;;;38.13;34.83;;;;;;;;;;4994390;28;20478;-85
2023/09/29 00:27:27;;;;;;;35.63;33.03;;;;;;;;;;4991979;28;20435;-85
2023/09/29 00:29:56;;;;;;;35.97;33.47;;;;;;;;;;4992864;28;20436;-85
2023/09/29 00:32:24;;;;;;;34.43;31.90;;;;;;;;;;4992095;28;20440;-84
2023/09/29 00:34:53;;;;;;;33.43;31.03;;;;;;;;;;4992317;28;20481;-84
2023/09/29 00:37:21;;;;;;;36.60;34.00;;;;;;;;;;4992578;28;20438;-84
2023/09/29 00:39:55;;;;;;;35.17;32.37;;;;;;;;;;4992377;28;20446;-84
2023/09/29 00:42:23;;;;;;;34.27;31.67;;;;;;;;;;4992422;28;20490;-85
2023/09/29 00:44:50;;;;;;;34.67;32.00;;;;;;;;;;4991414;28;20470;-84
2023/09/29 00:47:20;;;;;;;34.33;31.93;;;;;;;;;;4991167;28;20528;-83
2023/09/29 00:49:48;;;;;;;36.23;33.43;;;;;;;;;;4990516;28;20518;-85
2023/09/29 00:52:18;;;;;;;34.83;32.33;;;;;;;;;;4995324;28;20550;-85
2023/09/29 00:54:47;;;;;;;35.70;32.47;;;;;;;;;;4993644;28;20488;-83
2023/09/29 00:57:16;;;;;;;36.27;33.53;;;;;;;;;;4994612;28;20450;-85
2023/09/29 00:59:46;;;;;;;35.50;32.97;;;;;;;;;;4993796;28;20444;-85
2023/09/29 01:02:14;;;;;;;36.93;34.00;;;;;;;;;;4994237;28;20531;-85
2023/09/29 01:04:43;;;;;;;36.73;33.83;;;;;;;;;;4992786;28;20507;-84
2023/09/29 01:07:13;;;;;;;36.43;33.73;;;;;;;;;;4992915;28;20424;-85
2023/09/29 01:09:41;;;;;;;38.07;35.20;;;;;;;;;;4994209;28;20462;-85
2023/09/29 01:12:10;;;;;;;37.67;34.90;;;;;;;;;;4992999;28;21346;-84
2023/09/29 01:14:47;;;;;;;37.00;34.30;;;;;;;;;;4992446;28;20451;-84
2023/09/29 01:17:15;;;;;;;36.77;34.07;;;;;;;;;;4993147;28;20432;-85
2023/09/29 01:19:43;;;;;;;36.20;33.60;;;;;;;;;;4980268;28;20437;-85
2023/09/29 01:22:10;;;;;;;35.90;33.30;;;;;;;;;;4974957;28;20474;-84
2023/09/29 01:24:38;;;;;;;35.37;32.67;;;;;;;;;;4974396;28;20513;-84
2023/09/29 01:27:06;;;;;;;37.37;34.30;;;;;;;;;;4974488;28;20450;-84
2023/09/29 01:29:33;;;;;;;36.50;33.37;;;;;;;;;;4975028;28;20451;-84
2023/09/29 01:32:01;;;;;;;37.73;34.80;;;;;;;;;;4974710;28;20442;-84
2023/09/29 01:34:32;;;;;;;37.77;34.87;;;;;;;;;;4974783;28;20508;-83
2023/09/29 01:36:59;;;;;;;37.27;34.43;;;;;;;;;;4974467;28;20421;-84
2023/09/29 01:39:26;;;;;;;39.63;36.63;;;;;;;;;;4974959;28;20470;-84
2023/09/29 01:41:56;;;;;;;40.33;37.30;;;;;;;;;;4974717;28;20455;-85
2023/09/29 01:44:23;;;;;;;39.80;36.87;;;;;;;;;;4974387;28;20488;-84
2023/09/29 01:46:50;;;;;;;39.47;36.40;;;;;;;;;;4973878;28;20954;-84
2023/09/29 01:49:17;;;;;;;40.83;37.43;;;;;;;;;;4974970;28;20754;-86
2023/09/29 01:51:44;;;;;;;40.77;37.50;;;;;;;;;;4974757;28;20424;-84
2023/09/29 01:54:12;;;;;;;39.40;36.20;;;;;;;;;;4974463;28;20961;-84
2023/09/29 01:56:39;;;;;;;38.70;35.80;;;;;;;;;;4977958;28;20555;-84
2023/09/29 01:59:08;;;;;;;39.33;36.23;;;;;;;;;;4980678;28;20975;-85
2023/09/29 02:01:36;;;;;;;38.43;35.53;;;;;;;;;;4983273;28;20878;-86
2023/09/29 02:04:04;;;;;;;39.57;36.63;;;;;;;;;;4997110;28;20515;-85
2023/09/29 02:06:32;;;;;;;38.50;35.60;;;;;;;;;;4996759;28;20519;-81
2023/09/29 02:08:59;;;;;;;40.80;37.77;;;;;;;;;;4998659;28;20491;-83
2023/09/29 02:11:27;;;;;;;39.50;36.53;;;;;;;;;;4999029;28;20456;-82
2023/09/29 02:13:55;;;;;;;40.40;37.07;;;;;;;;;;5001843;28;20508;-82
2023/09/29 02:16:23;;;;;;;38.57;35.47;;;;;;;;;;4998524;28;20450;-81
2023/09/29 02:18:50;;;;;;;39.97;36.67;;;;;;;;;;4999132;28;20440;-81
2023/09/29 02:21:22;;;;;;;39.20;36.17;;;;;;;;;;4998775;28;20478;-82
2023/09/29 02:23:49;;;;;;;37.53;34.70;;;;;;;;;;5006127;28;20540;-82
2023/09/29 02:26:17;;;;;;;35.70;33.10;;;;;;;;;;4998718;28;20484;-82
2023/09/29 02:28:44;;;;;;;38.90;35.60;;;;;;;;;;4999136;28;20577;-82
2023/09/29 02:31:14;;;;;;;37.90;34.97;;;;;;;;;;4998939;28;21249;-83
2023/09/29 02:33:43;;;;;;;38.83;35.93;;;;;;;;;;4998574;28;20473;-82
2023/09/29 02:36:10;;;;;;;39.30;36.03;;;;;;;;;;4998238;28;20445;-82
2023/09/29 02:38:37;;;;;;;38.73;35.83;;;;;;;;;;4998933;28;20431;-83
2023/09/29 02:41:07;;;;;;;38.00;35.20;;;;;;;;;;4999262;28;20449;-83
2023/09/29 02:43:34;;;;;;;37.43;34.73;;;;;;;;;;5003136;28;20460;-82
2023/09/29 02:46:01;;;;;;;37.10;34.00;;;;;;;;;;4998617;28;20457;-82
2023/09/29 02:48:28;;;;;;;37.37;34.27;;;;;;;;;;4999235;28;20436;-83
2023/09/29 02:50:56;;;;;;;35.73;33.13;;;;;;;;;;4998418;28;20848;-82
2023/09/29 02:53:23;;;;;;;34.83;32.23;;;;;;;;;;4998955;28;20448;-82
2023/09/29 02:55:51;;;;;;;35.60;33.00;;;;;;;;;;5002409;28;20455;-82
2023/09/29 02:58:19;;;;;;;35.60;32.80;;;;;;;;;;4999295;28;20449;-83
2023/09/29 03:00:46;;;;;;;37.73;34.83;;;;;;;;;;4998953;28;20449;-82
2023/09/29 03:03:14;;;;;;;34.47;32.00;;;;;;;;;;5004684;28;20487;-83
2023/09/29 03:05:43;;;;;;;37.57;34.60;;;;;;;;;;4998544;28;21196;-83
2023/09/29 03:08:11;;;;;;;36.70;33.90;;;;;;;;;;4998431;28;20453;-82
2023/09/29 03:10:38;;;;;;;34.87;32.37;;;;;;;;;;4998582;28;20435;-83
2023/09/29 03:13:06;;;;;;;36.03;33.37;;;;;;;;;;4998950;28;20489;-83
2023/09/29 03:15:33;;;;;;;33.90;31.07;;;;;;;;;;5001898;28;20447;-84
2023/09/29 03:18:00;;;;;;;33.90;31.50;;;;;;;;;;4997179;28;20464;-84
2023/09/29 03:20:27;;;;;;;34.00;31.20;;;;;;;;;;5002214;28;20790;-83
2023/09/29 03:22:54;;;;;;;34.80;32.10;;;;;;;;;;4998123;28;20990;-83
2023/09/29 03:25:22;;;;;;;34.77;31.80;;;;;;;;;;4997467;28;20451;-83
2023/09/29 03:27:50;;;;;;;32.73;30.53;;;;;;;;;;4997572;28;20428;-83
2023/09/29 03:30:17;;;;;;;34.17;31.83;;;;;;;;;;4997985;28;20537;-83
2023/09/29 03:32:45;;;;;;;32.53;30.33;;;;;;;;;;4997674;28;20457;-83
2023/09/29 03:35:13;;;;;;;33.67;31.47;;;;;;;;;;4997889;28;20457;-83
2023/09/29 03:37:42;;;;;;;32.80;30.70;;;;;;;;;;4996592;28;20453;-83
2023/09/29 03:40:10;;;;;;;32.23;29.93;;;;;;;;;;4997951;28;21315;-83
2023/09/29 03:42:41;;;;;;;31.30;29.30;;;;;;;;;;4996936;28;20505;-84
2023/09/29 03:45:09;;;;;;;32.70;30.40;;;;;;;;;;5001647;28;20552;-84
2023/09/29 03:47:36;;;;;;;32.50;30.17;;;;;;;;;;4996726;28;20515;-83
2023/09/29 03:50:04;;;;;;;30.50;28.33;;;;;;;;;;4997571;28;20940;-83
2023/09/29 03:52:32;;;;;;;30.30;28.10;;;;;;;;;;4997986;28;20494;-84
2023/09/29 03:54:59;;;;;;;30.90;28.93;;;;;;;;;;4997268;28;20437;-84
2023/09/29 03:57:26;;;;;;;30.60;28.60;;;;;;;;;;4996421;28;20448;-83
2023/09/29 03:59:54;;;;;;;31.73;29.23;;;;;;;;;;4997634;28;20450;-83
2023/09/29 04:02:21;;;;;;;33.13;30.57;;;;;;;;;;4998913;28;20451;-83
2023/09/29 04:04:48;;;;;;;31.00;28.70;;;;;;;;;;4996788;28;20804;-83
2023/09/29 04:07:16;;;;;;;30.43;28.40;;;;;;;;;;4997339;28;20445;-84
2023/09/29 04:09:43;;;;;;;31.50;29.00;;;;;;;;;;4998178;28;21004;-83
2023/09/29 04:12:12;;;;;;;32.47;29.50;;;;;;;;;;5000417;28;20472;-82
2023/09/29 04:14:39;;;;;;;31.17;29.07;;;;;;;;;;4997640;28;20551;-83
2023/09/29 04:17:07;;;;;;;30.47;28.40;;;;;;;;;;4997233;28;20419;-83
2023/09/29 04:19:35;;;;;;;29.90;27.73;;;;;;;;;;4996994;28;20430;-84
2023/09/29 04:22:02;;;;;;;30.23;28.23;;;;;;;;;;4996452;28;20449;-84
2023/09/29 04:24:29;;;;;;;30.33;28.23;;;;;;;;;;4997319;28;20496;-85
2023/09/29 04:26:56;;;;;;;30.37;28.27;;;;;;;;;;4996946;28;20462;-83
2023/09/29 04:29:23;;;;;;;29.27;27.27;;;;;;;;;;4998899;28;20457;-83
2023/09/29 04:31:50;;;;;;;31.03;29.03;;;;;;;;;;4998590;28;20420;-84
2023/09/29 04:34:19;;;;;;;32.27;30.03;;;;;;;;;;4999788;28;20961;-83
2023/09/29 04:36:46;;;;;;;31.13;28.97;;;;;;;;;;4996823;28;20446;-82
2023/09/29 04:39:13;;;;;;;30.23;28.33;;;;;;;;;;4997344;28;20535;-85
2023/09/29 04:41:42;;;;;;;31.67;29.50;;;;;;;;;;4996712;28;20493;-83
2023/09/29 04:44:09;;;;;;;31.77;29.40;;;;;;;;;;4996934;28;20849;-84
2023/09/29 04:46:38;;;;;;;29.90;27.70;;;;;;;;;;4999450;28;20453;-83
2023/09/29 04:49:05;;;;;;;28.80;26.97;;;;;;;;;;4997176;28;20421;-84
2023/09/29 04:51:33;;;;;;;30.00;28.00;;;;;;;;;;4997654;28;20926;-83
2023/09/29 04:54:00;;;;;;;28.97;26.97;;;;;;;;;;5000500;28;20448;-82
2023/09/29 04:56:27;;;;;;;29.50;27.63;;;;;;;;;;4996467;28;20468;-83
2023/09/29 04:58:55;;;;;;;31.33;29.13;;;;;;;;;;4997981;28;20457;-83
2023/09/29 05:01:23;;;;;;;30.03;27.83;;;;;;;;;;4996755;28;20942;-84
2023/09/29 05:03:51;;;;;;;28.27;26.30;;;;;;;;;;4995883;28;20493;-84
2023/09/29 05:06:18;;;;;;;29.33;27.50;;;;;;;;;;4998078;28;20476;-83
2023/09/29 05:08:47;;;;;;;29.47;27.40;;;;;;;;;;4995867;28;20453;-83
2023/09/29 05:11:21;;;;;;;28.90;27.03;;;;;;;;;;4996561;28;20925;-85
2023/09/29 05:13:48;;;;;;;29.17;27.13;;;;;;;;;;4996291;28;20492;-83
2023/09/29 05:16:15;;;;;;;28.77;26.87;;;;;;;;;;4996517;28;20472;-84
2023/09/29 05:18:42;;;;;;;29.50;27.60;;;;;;;;;;4996379;28;20436;-85
2023/09/29 05:21:09;;;;;;;27.80;26.10;;;;;;;;;;4996561;28;20821;-84
2023/09/29 05:23:37;;;;;;;28.67;26.77;;;;;;;;;;4996774;28;20527;-83
2023/09/29 05:26:07;;;;;;;28.37;26.43;;;;;;;;;;4996026;28;20964;-83
2023/09/29 05:28:34;;;;;;;27.87;26.10;;;;;;;;;;4996422;28;20435;-83
2023/09/29 05:31:02;;;;;;;28.77;26.70;;;;;;;;;;4998260;28;20507;-82
2023/09/29 05:33:29;;;;;;;28.33;26.43;;;;;;;;;;5000545;28;20475;-83
2023/09/29 05:35:56;;;;;;;27.57;25.40;;;;;;;;;;5000291;28;20571;-83
2023/09/29 05:38:23;;;;;;;30.07;27.87;;;;;;;;;;5001116;28;20510;-84
2023/09/29 05:40:51;;;;;;;28.50;26.57;;;;;;;;;;5001281;28;20416;-83
2023/09/29 05:43:20;;;;;;;27.63;25.80;;;;;;;;;;5006487;28;20469;-84
2023/09/29 05:45:47;;;;;;;27.93;26.10;;;;;;;;;;5001971;28;20570;-85
2023/09/29 05:48:14;;;;;;;28.77;26.97;;;;;;;;;;4999978;28;20449;-84
2023/09/29 05:50:42;;;;;;;26.73;25.10;;;;;;;;;;5001950;28;20443;-83
2023/09/29 05:53:09;;;;;;;27.67;25.77;;;;;;;;;;5000498;28;20484;-83
2023/09/29 05:55:36;;;;;;;27.87;25.70;;;;;;;;;;4999979;28;20426;-85
2023/09/29 05:58:03;;;;;;;27.53;25.73;;;;;;;;;;4999117;28;20461;-83
2023/09/29 06:00:33;;;;;;;26.80;24.97;;;;;;;;;;5000187;28;20484;-83
2023/09/29 06:03:00;;;;;;;29.83;27.70;;;;;;;;;;4999698;28;20997;-84
2023/09/29 06:05:28;;;;;;;27.77;25.97;;;;;;;;;;4999760;28;20508;-83
2023/09/29 06:07:55;;;;;;;27.30;25.60;;;;;;;;;;5000348;28;20544;-84
2023/09/29 06:10:22;;;;;;;26.97;25.07;;;;;;;;;;5000784;28;20468;-84
2023/09/29 06:12:50;;;;;;;26.00;24.50;;;;;;;;;;5000559;28;20512;-83
2023/09/29 06:15:17;;;;;;;25.27;23.67;;;;;;;;;;4999858;28;20441;-85
2023/09/29 06:17:45;;;;;;;30.30;25.10;;;;;;;;;;5000146;28;20457;-82
2023/09/29 06:20:12;;;;;;;25.50;24.00;;;;;;;;;;5000124;28;20480;-84
2023/09/29 06:22:39;;;;;;;24.90;23.50;;;;;;;;;;4999484;28;20475;-83
2023/09/29 06:25:07;;;;;;;24.67;23.03;;;;;;;;;;4999396;28;20496;-85
2023/09/29 06:27:34;;;;;;;24.87;22.97;;;;;;;;;;4999246;28;20453;-83
2023/09/29 06:30:01;;;;;;;23.73;22.33;;;;;;;;;;4999114;28;20424;-85
2023/09/29 06:32:28;;;;;;;23.90;22.20;;;;;;;;;;4999352;28;20545;-83
2023/09/29 06:34:56;;;;;;;23.33;21.83;;;;;;;;;;4999270;28;20436;-84
2023/09/29 06:37:23;;;;;;;23.90;22.43;;;;;;;;;;4998237;28;20460;-83
2023/09/29 06:39:51;;;;;;;23.73;22.03;;;;;;;;;;4999177;28;20921;-82
2023/09/29 06:42:18;;;;;;;23.27;21.87;;;;;;;;;;4998610;28;20966;-82
2023/09/29 06:44:45;;;;;;;22.60;21.30;;;;;;;;;;4998913;28;20492;-82
2023/09/29 06:47:12;;;;;;;21.40;19.90;;;;;;;;;;4998153;28;20452;-83
2023/09/29 06:49:39;;;;;;;22.27;20.67;;;;;;;;;;4998484;28;20462;-82
2023/09/29 06:52:07;;;;;;;21.57;20.27;;;;;;;;;;4997990;28;20561;-81
2023/09/29 06:54:34;;;;;;;23.03;21.63;;;;;;;;;;4998256;28;20453;-82
2023/09/29 06:57:01;;;;;;;22.27;20.87;;;;;;;;;;4996170;28;20454;-81
2023/09/29 06:59:29;;;;;;;21.97;20.77;;;;;;;;;;4997103;28;20465;-81
2023/09/29 07:01:56;;;;;;;23.30;21.80;;;;;;;;;;4996346;28;21008;-82
2023/09/29 07:04:23;;;;;;;22.10;20.77;;;;;;;;;;4996685;28;20468;-82
2023/09/29 07:06:50;;;;;;;21.53;20.40;;;;;;;;;;4994174;28;20452;-83
2023/09/29 07:09:18;;;;;;;21.13;19.90;;;;;;;;;;4996988;28;20453;-81
2023/09/29 07:11:45;;;;;;;20.53;19.13;;;;;;;;;;4996765;28;20814;-83
2023/09/29 07:14:12;;;;;;;20.50;19.30;;;;;;;;;;4996677;28;20472;-83
2023/09/29 07:16:42;;;;;;;20.93;19.73;;;;;;;;;;4996209;28;20428;-81
2023/09/29 07:19:09;;;;;;;20.87;19.67;;;;;;;;;;4997481;28;20431;-82
2023/09/29 07:21:36;;;;;;;21.63;19.77;;;;;;;;;;4996092;28;20443;-84
2023/09/29 07:24:03;;;;;;;21.20;20.00;;;;;;;;;;4996378;28;20476;-83
2023/09/29 07:26:32;;;;;;;21.27;19.97;;;;;;;;;;4995698;28;20489;-81
2023/09/29 07:29:01;;;;;;;22.07;20.73;;;;;;;;;;4996208;28;20446;-83
2023/09/29 07:31:34;;;;;;;20.70;19.50;;;;;;;;;;4996628;28;20461;-82
2023/09/29 07:34:01;;;;;;;20.50;19.30;;;;;;;;;;4995947;28;20471;-81
2023/09/29 07:36:31;;;;;;;20.70;19.60;;;;;;;;;;4995542;28;20453;-82
2023/09/29 07:38:58;;;;;;;20.43;19.23;;;;;;;;;;4996671;28;20857;-83
2023/09/29 07:41:25;;;;;;;21.70;20.50;;;;;;;;;;4996383;28;20950;-80
2023/09/29 07:43:54;;;;;;;21.53;20.23;;;;;;;;;;4996801;28;20444;-82
2023/09/29 07:46:21;;;;;;;20.10;18.90;;;;;;;;;;4993345;28;20488;-81
2023/09/29 07:48:48;;;;;;;20.40;19.30;;;;;;;;;;4996419;28;20437;-82
2023/09/29 07:51:15;;;;;;;23.13;21.37;;;;;;;;;;4983266;28;20461;-82
2023/09/29 07:53:42;;;;;;;21.10;19.70;;;;;;;;;;4976044;28;20472;-83
2023/09/29 07:56:12;;;;;;;21.47;20.27;;;;;;;;;;4975177;28;20530;-84
2023/09/29 07:58:40;;;;;;;19.80;18.80;;;;;;;;;;4975607;28;20435;-83
2023/09/29 08:01:08;;;;;;;21.50;20.13;;;;;;;;;;4974446;28;20449;-84
2023/09/29 08:03:36;;;;;;;20.73;19.63;;;;;;;;;;4973535;28;20841;-83
2023/09/29 08:06:03;;;;;;;21.00;19.90;;;;;;;;;;4974296;28;20490;-84
2023/09/29 08:08:31;;;;;;;20.67;19.47;;;;;;;;;;4973951;28;20450;-78
2023/09/29 08:10:59;;;;;;;20.40;19.20;;;;;;;;;;4973540;28;20429;-78
2023/09/29 08:13:26;;;;;;;20.23;19.23;;;;;;;;;;4973318;28;20457;-79
2023/09/29 08:15:53;;;;;;;20.93;19.63;;;;;;;;;;4972464;28;20453;-79
2023/09/29 08:18:22;;;;;;;20.70;19.43;;;;;;;;;;4973347;28;20472;-79
2023/09/29 08:20:53;;;;;;;20.60;19.30;;;;;;;;;;4973395;28;20417;-78
2023/09/29 08:23:20;;;;;;;20.50;19.30;;;;;;;;;;4972216;28;20469;-77
2023/09/29 08:25:48;;;;;;;21.57;19.60;;;;;;;;;;4971370;28;20475;-80
2023/09/29 08:28:15;;;;;;;19.30;18.10;;;;;;;;;;4972983;28;20438;-81
2023/09/29 08:30:42;;;;;;;19.33;18.23;;;;;;;;;;4973015;28;20477;-81
2023/09/29 08:33:10;;;;;;;19.67;18.60;;;;;;;;;;4972753;28;20458;-77
2023/09/29 08:35:38;;;;;;;19.93;18.53;;;;;;;;;;4972650;28;20446;-81
2023/09/29 08:38:06;;;;;;;19.83;18.83;;;;;;;;;;4973309;28;20446;-81
2023/09/29 08:40:37;;;;;;;20.50;18.97;;;;;;;;;;4972942;28;20444;-78
2023/09/29 08:43:06;;;;;;;20.20;18.70;;;;;;;;;;4971824;28;20478;-77
2023/09/29 08:45:33;;;;;;;19.60;18.40;;;;;;;;;;4972999;28;20556;-79
2023/09/29 08:48:03;;;;;;;20.03;18.93;;;;;;;;;;4972060;28;20515;-77
2023/09/29 08:50:30;;;;;;;19.60;18.40;;;;;;;;;;4972559;28;20457;-77
2023/09/29 08:53:01;;;;;;;21.00;19.50;;;;;;;;;;4971579;28;20471;-77
2023/09/29 08:55:29;;;;;;;21.30;19.97;;;;;;;;;;4971491;28;20865;-80
2023/09/29 08:57:57;;;;;;;20.67;19.47;;;;;;;;;;4971054;28;20524;-77
2023/09/29 09:00:26;;;;;;;20.10;19.03;;;;;;;;;;4970715;28;20461;-78
2023/09/29 09:02:55;;;;;;;21.00;18.93;;;;;;;;;;4971343;28;20466;-75
2023/09/29 09:08:27;;;;;;;20.57;19.17;;;;;;;;;;4969663;28;20912;-78
2023/09/29 09:10:59;;;;;;;20.63;19.37;;;;;;;;;;4971163;28;20540;-77
2023/09/29 09:13:26;;;;;;;20.13;18.73;;;;;;;;;;4953748;28;20513;-76
2023/09/29 09:15:57;;;;;;;20.67;19.03;;;;;;;;;;4970133;28;20509;-77
2023/09/29 09:21:34;;;;;;;20.37;19.07;;;;;;;;;;4972220;28;20449;-77
2023/09/29 09:24:02;;;;;;;20.93;19.17;;;;;;;;;;4971112;28;20470;-77
2023/09/29 09:26:30;;;;;;;21.37;19.60;;;;;;;;;;4970228;28;21013;-78
2023/09/29 09:29:09;;;;;;;20.93;19.37;;;;;;;;;;4971425;28;20454;-78
2023/09/29 09:31:50;;;;;;;21.17;19.97;;;;;;;;;;4970875;28;20529;-78
2023/09/29 09:34:20;;;;;;;19.80;18.67;;;;;;;;;;4971615;28;20525;-77
2023/09/29 09:36:52;;;;;;;20.03;18.93;;;;;;;;;;4970681;28;20791;-77
2023/09/29 09:39:23;;;;;;;20.20;19.00;;;;;;;;;;4970764;28;20918;-77
2023/09/29 09:41:52;;;;;;;20.30;19.07;;;;;;;;;;4972266;28;20412;-78
2023/09/29 09:44:20;;;;;;;19.70;18.50;;;;;;;;;;4971136;28;20515;-77
2023/09/29 09:49:51;;;;;;;20.47;18.93;;;;;;;;;;4969235;28;20394;-78
2023/09/29 09:52:23;;;;;;;21.97;20.40;;;;;;;;;;4970396;28;20998;-76
2023/09/29 09:54:53;;;;;;;19.73;18.73;;;;;;;;;;4971203;28;20448;-76
2023/09/29 09:57:24;;;;;;;21.23;19.93;;;;;;;;;;4971122;28;20544;-76
2023/09/29 09:59:54;;;;;;;23.90;21.67;;;;;;;;;;4971945;28;20789;-78
2023/09/29 10:02:21;;;;;;;20.23;19.03;;;;;;;;;;4971871;28;20501;-77
2023/09/29 10:04:49;;;;;;;20.60;19.30;;;;;;;;;;4971670;28;20458;-77
2023/09/29 10:07:17;;;;;;;19.50;18.30;;;;;;;;;;4970497;28;20498;-77
2023/09/29 10:09:44;;;;;;;21.37;19.97;;;;;;;;;;4970556;28;20454;-77
2023/09/29 10:12:27;;;;;;;19.90;18.80;;;;;;;;;;4969990;28;20470;-77
2023/09/29 10:14:56;;;;;;;20.53;18.80;;;;;;;;;;4968304;28;20462;-77
2023/09/29 10:17:23;;;;;;;20.30;19.20;;;;;;;;;;4973026;28;20977;-77
2023/09/29 10:19:54;;;;;;;19.33;18.33;;;;;;;;;;4975077;28;20444;-77
2023/09/29 10:22:26;;;;;;;19.70;18.30;;;;;;;;;;4975311;28;20837;-77
2023/09/29 10:24:56;;;;;;;20.57;19.57;;;;;;;;;;4974196;28;20544;-78
2023/09/29 10:27:30;;;;;;;20.40;19.30;;;;;;;;;;4975419;28;20478;-78
2023/09/29 10:30:13;;;;;;;20.70;19.60;;;;;;;;;;4975820;28;20435;-78
2023/09/29 10:32:40;;;;;;;22.30;20.77;;;;;;;;;;4975655;28;20507;-78
2023/09/29 10:35:11;;;;;;;21.00;19.63;;;;;;;;;;4975057;28;20504;-79
2023/09/29 10:37:41;;;;;;;21.57;20.37;;;;;;;;;;4975219;28;20438;-78
2023/09/29 10:40:08;;;;;;;20.60;19.40;;;;;;;;;;4975820;28;20856;-78
2023/09/29 10:42:38;;;;;;;20.27;19.10;;;;;;;;;;4975435;28;20485;-78
2023/09/29 10:45:07;;;;;;;20.90;19.60;;;;;;;;;;4975557;28;20493;-78
2023/09/29 10:47:34;;;;;;;21.13;19.50;;;;;;;;;;4973954;28;20521;-78
2023/09/29 10:50:02;;;;;;;21.70;20.07;;;;;;;;;;4974320;28;20446;-77
2023/09/29 10:52:30;;;;;;;21.03;19.83;;;;;;;;;;4974663;28;20469;-79
2023/09/29 10:54:58;;;;;;;21.07;19.87;;;;;;;;;;4974526;28;20459;-79
2023/09/29 10:57:26;;;;;;;21.00;19.60;;;;;;;;;;4975116;28;20454;-79
2023/09/29 10:59:59;;;;;;;20.63;19.30;;;;;;;;;;4977022;28;20462;-81
2023/09/29 11:02:32;;;;;;;21.13;19.80;;;;;;;;;;4976485;28;20484;-80
2023/09/29 11:05:02;;;;;;;21.27;20.03;;;;;;;;;;4976426;28;21183;-79
2023/09/29 11:07:29;;;;;;;20.40;19.20;;;;;;;;;;4975749;28;20490;-80
2023/09/29 11:09:59;;;;;;;20.60;19.40;;;;;;;;;;4976639;28;20485;-81
2023/09/29 11:15:19;;;;;;;21.10;19.90;;;;;;;;;;4976361;28;20446;-80
2023/09/29 11:17:50;;;;;;;20.23;19.13;;;;;;;;;;4977242;28;20405;-79
2023/09/29 11:20:25;;;;;;;21.03;19.73;;;;;;;;;;4980029;28;20461;-80
2023/09/29 11:23:21;;;;;;;21.27;19.97;;;;;;;;;;4991545;28;20461;-78
2023/09/29 11:25:49;;;;;;;21.53;20.20;;;;;;;;;;4978942;28;20494;-79
2023/09/29 11:28:16;;;;;;;21.10;19.90;;;;;;;;;;4977061;28;21143;-79
2023/09/29 11:30:43;;;;;;;21.03;19.70;;;;;;;;;;4978116;28;20949;-79
2023/09/29 11:33:15;;;;;;;21.30;20.10;;;;;;;;;;4978154;28;20846;-80
2023/09/29 11:35:45;;;;;;;20.83;19.73;;;;;;;;;;4978430;28;20468;-79
2023/09/29 11:38:15;;;;;;;22.03;20.27;;;;;;;;;;4977894;28;20541;-78
2023/09/29 11:40:42;;;;;;;21.20;19.90;;;;;;;;;;4978733;28;20466;-79
2023/09/29 11:43:10;;;;;;;19.63;18.53;;;;;;;;;;4983335;28;20986;-80
2023/09/29 11:45:38;;;;;;;21.03;19.73;;;;;;;;;;4977005;28;20541;-81
2023/09/29 11:48:06;;;;;;;21.77;20.47;;;;;;;;;;4978813;28;20517;-79
2023/09/29 11:50:34;;;;;;;21.00;19.60;;;;;;;;;;4978042;28;20450;-79
2023/09/29 11:53:05;;;;;;;22.07;20.67;;;;;;;;;;4978897;28;20474;-78
2023/09/29 11:55:33;;;;;;;21.73;20.33;;;;;;;;;;4977262;28;20442;-79
2023/09/29 11:58:00;;;;;;;21.47;19.87;;;;;;;;;;4977603;28;20416;-79
2023/09/29 12:00:27;;;;;;;20.70;19.40;;;;;;;;;;4976426;28;20553;-79
2023/09/29 12:02:54;;;;;;;21.63;20.30;;;;;;;;;;4975008;28;20839;-78
2023/09/29 12:05:21;;;;;;;22.20;20.80;;;;;;;;;;4975739;28;20517;-78
2023/09/29 12:07:50;;;;;;;21.83;20.40;;;;;;;;;;4974064;28;21010;-78
2023/09/29 12:10:17;;;;;;;21.43;19.93;;;;;;;;;;4975648;28;20470;-79
2023/09/29 12:12:44;;;;;;;22.40;21.00;;;;;;;;;;4976402;28;20482;-79
2023/09/29 12:15:14;;;;;;;22.40;20.93;;;;;;;;;;4975711;28;20524;-78
2023/09/29 12:17:41;;;;;;;22.30;20.70;;;;;;;;;;4976034;28;20806;-78
2023/09/29 12:20:13;;;;;;;22.50;20.97;;;;;;;;;;4974285;28;20443;-79
2023/09/29 12:22:43;;;;;;;23.17;21.77;;;;;;;;;;4974093;28;20485;-79
2023/09/29 12:25:13;;;;;;;22.40;21.00;;;;;;;;;;4974056;28;20577;-79
2023/09/29 12:27:43;;;;;;;22.37;20.80;;;;;;;;;;4974137;28;20501;-78
2023/09/29 12:30:12;;;;;;;22.00;20.50;;;;;;;;;;4977362;28;20454;-79
2023/09/29 12:32:41;;;;;;;22.47;20.70;;;;;;;;;;4974380;28;20494;-78
2023/09/29 12:35:12;;;;;;;21.57;20.10;;;;;;;;;;4974048;28;20870;-78
2023/09/29 12:37:39;;;;;;;22.40;21.10;;;;;;;;;;4974085;28;20933;-79
2023/09/29 12:40:09;;;;;;;21.70;20.30;;;;;;;;;;4974061;28;20989;-78
2023/09/29 12:42:38;;;;;;;21.83;20.33;;;;;;;;;;4974644;28;20474;-78
2023/09/29 12:45:05;;;;;;;22.20;20.67;;;;;;;;;;4974219;28;20461;-79
2023/09/29 12:47:33;;;;;;;22.23;20.50;;;;;;;;;;4978992;28;20546;-77
2023/09/29 12:50:00;;;;;;;21.97;20.77;;;;;;;;;;4986032;28;20469;-78
2023/09/29 12:52:27;;;;;;;22.13;20.83;;;;;;;;;;4975018;28;20474;-79
2023/09/29 12:54:56;;;;;;;21.87;20.47;;;;;;;;;;4975274;28;20545;-79
2023/09/29 12:57:23;;;;;;;24.20;22.53;;;;;;;;;;4973819;28;20446;-78
2023/09/29 13:00:07;;;;;;;23.90;22.07;;;;;;;;;;4974446;28;20456;-78
2023/09/29 13:02:45;;;;;;;23.53;22.00;;;;;;;;;;4978314;28;20472;-78
2023/09/29 13:05:12;;;;;;;22.80;21.30;;;;;;;;;;4977026;28;20965;-79
2023/09/29 13:07:39;;;;;;;24.13;22.30;;;;;;;;;;4974083;28;20489;-78
2023/09/29 13:10:07;;;;;;;24.30;22.50;;;;;;;;;;4974551;28;20537;-78
2023/09/29 13:12:37;;;;;;;23.50;21.90;;;;;;;;;;4975476;28;20511;-78
2023/09/29 13:15:08;;;;;;;22.83;21.40;;;;;;;;;;4974792;28;20534;-78
2023/09/29 13:17:39;;;;;;;25.23;23.50;;;;;;;;;;4975189;28;20484;-78
2023/09/29 13:20:10;;;;;;;24.57;22.43;;;;;;;;;;4975274;28;20943;-79
2023/09/29 13:22:37;;;;;;;24.40;22.57;;;;;;;;;;4976445;28;20513;-78
2023/09/29 13:25:05;;;;;;;25.17;23.30;;;;;;;;;;4980786;28;20433;-78
2023/09/29 13:27:33;;;;;;;24.57;22.97;;;;;;;;;;4979827;28;20464;-79
2023/09/29 13:30:01;;;;;;;23.27;21.77;;;;;;;;;;4979196;28;20429;-84
2023/09/29 13:32:33;;;;;;;24.47;22.60;;;;;;;;;;4980833;28;20549;-84
2023/09/29 13:35:27;;;;;;;24.50;22.90;;;;;;;;;;4979983;28;20430;-83
2023/09/29 13:37:56;;;;;;;24.37;22.60;;;;;;;;;;4978446;28;20454;-84
2023/09/29 13:40:27;;;;;;;24.63;23.03;;;;;;;;;;4977098;28;20450;-83
2023/09/29 13:43:03;;;;;;;24.20;22.60;;;;;;;;;;4976242;28;20540;-84
2023/09/29 13:45:58;;;;;;;24.30;22.70;;;;;;;;;;4976983;28;21038;-84
2023/09/29 13:54:53;;;;;;;23.93;22.43;;;;;;;;;;5096383;28;20450;-84
2023/09/29 13:57:20;;;;;;;23.67;22.17;;;;;;;;;;5094574;28;20408;-83
2023/09/29 13:59:47;;;;;;;25.10;23.20;;;;;;;;;;5094945;28;20839;-84
2023/09/29 14:02:14;;;;;;;24.60;22.90;;;;;;;;;;5096998;28;20464;-83
2023/09/29 14:04:42;;;;;;;24.33;22.63;;;;;;;;;;5095382;28;20436;-84
2023/09/29 14:07:11;;;;;;;24.37;22.67;;;;;;;;;;5096280;28;20484;-83
2023/09/29 14:09:39;;;;;;;24.20;22.33;;;;;;;;;;5095181;28;20429;-83
2023/09/29 14:12:08;;;;;;;23.10;21.60;;;;;;;;;;5095285;28;20502;-83
2023/09/29 14:14:35;;;;;;;23.87;22.27;;;;;;;;;;5094999;28;20457;-83
2023/09/29 14:17:04;;;;;;;24.90;23.13;;;;;;;;;;5097099;28;20452;-83
2023/09/29 14:19:32;;;;;;;23.43;21.80;;;;;;;;;;5098043;28;20464;-83
2023/09/29 14:21:59;;;;;;;23.23;21.67;;;;;;;;;;5096630;28;20445;-84
2023/09/29 14:24:28;;;;;;;23.67;22.07;;;;;;;;;;5093515;28;20453;-85
2023/09/29 14:26:55;;;;;;;23.57;21.97;;;;;;;;;;5092082;28;20440;-85
2023/09/29 14:29:22;;;;;;;22.97;21.53;;;;;;;;;;5092927;28;20475;-84
2023/09/29 14:31:51;;;;;;;24.10;22.50;;;;;;;;;;5093589;28;20488;-84
2023/09/29 14:34:18;;;;;;;23.23;21.73;;;;;;;;;;5092182;28;20492;-84
2023/09/29 14:36:46;;;;;;;23.43;21.63;;;;;;;;;;5091541;28;20449;-85
2023/09/29 14:39:15;;;;;;;22.63;21.20;;;;;;;;;;5092497;28;20522;-85
2023/09/29 14:41:44;;;;;;;24.13;22.30;;;;;;;;;;5092314;28;20518;-84
2023/09/29 14:44:11;;;;;;;23.90;22.30;;;;;;;;;;5083701;28;20481;-84